Time;durP1;ratioP1;P1;durP2;ratioP2;P2;SDS_P1;SDS_P2;PMS_P1;PMS_P2;Temp;Humidity;BMP_temperature;BMP_pressure;BME280_temperature;BME280_humidity;BME280_pressure;Samples;Min_cycle;Max_cycle;Signal;HPM_P1;HPM_P2
2023/12/06 00:01:45;;;;;;;;;74.25;51.75;;;;;-143.90;100.00;76894.72;4930941;28;102027;-74
2023/12/06 00:04:12;;;;;;;;;56.25;44.00;;;;;-143.90;100.00;76878.19;4932693;28;102105;-74
2023/12/06 00:06:38;;;;;;;;;35.00;19.25;;;;;-143.90;100.00;76880.25;4933120;28;103299;-73
2023/12/06 00:09:05;;;;;;;;;107.75;78.25;;;;;-143.90;100.00;76894.72;4930727;28;102064;-74
2023/12/06 00:11:32;;;;;;;;;113.25;85.50;;;;;-143.90;100.00;76905.06;4931654;28;102015;-74
2023/12/06 00:13:58;;;;;;;;;103.75;75.50;;;;;-143.90;100.00;76896.81;4932131;28;101596;-74
2023/12/06 00:16:25;;;;;;;;;98.50;73.00;;;;;-143.90;100.00;76880.25;4930016;28;103360;-74
2023/12/06 00:18:53;;;;;;;;;86.50;64.50;;;;;-143.90;100.00;76871.97;4934666;28;102467;-74
2023/12/06 00:21:20;;;;;;;;;83.75;60.75;;;;;-143.90;100.00;76855.44;4931561;28;102213;-74
2023/12/06 00:23:48;;;;;;;;;91.50;66.25;;;;;-143.90;100.00;76859.56;4931919;28;102007;-74
2023/12/06 00:26:14;;;;;;;;;102.50;75.00;;;;;-143.90;100.00;76857.50;4930780;28;103930;-75
2023/12/06 00:28:41;;;;;;;;;92.00;69.00;;;;;-143.90;100.00;76843.03;4929724;28;102002;-75
2023/12/06 00:31:09;;;;;;;;;93.75;67.25;;;;;-143.90;100.00;76838.88;4928249;28;101996;-74
2023/12/06 00:33:36;;;;;;;;;85.00;64.75;;;;;-143.90;100.00;76820.28;4933390;28;102253;-74
2023/12/06 00:36:03;;;;;;;;;85.50;62.25;;;;;-143.90;100.00;76818.22;4931424;28;103331;-75
2023/12/06 00:38:30;;;;;;;;;84.50;58.50;;;;;-143.90;100.00;76807.88;4931210;28;101828;-74
2023/12/06 00:40:59;;;;;;;;;66.25;52.00;;;;;-143.90;100.00;76801.66;4930484;28;108186;-74
2023/12/06 00:43:25;;;;;;;;;55.00;47.00;;;;;-143.90;100.00;76791.31;4932803;28;101970;-74
2023/12/06 00:45:53;;;;;;;;;64.50;47.25;;;;;-143.90;100.00;76778.91;4930129;28;103795;-74
2023/12/06 00:48:20;;;;;;;;;56.25;43.50;;;;;-143.90;100.00;76776.84;4931158;28;102818;-74
2023/12/06 00:50:47;;;;;;;;;89.00;65.25;;;;;-143.90;100.00;76780.97;4930751;28;102293;-74
2023/12/06 00:53:13;;;;;;;;;78.75;60.00;;;;;-143.90;100.00;76783.03;4929471;28;102548;-75
2023/12/06 00:55:40;;;;;;;;;86.75;63.00;;;;;-143.90;100.00;76783.03;4929412;28;103474;-74
2023/12/06 00:58:07;;;;;;;;;92.50;66.25;;;;;-143.90;100.00;76785.13;4931429;28;101847;-75
2023/12/06 01:00:33;;;;;;;;;97.75;69.75;;;;;-143.90;100.00;76789.25;4930026;28;101913;-75
2023/12/06 01:03:00;;;;;;;;;109.50;79.50;;;;;-143.90;100.00;76799.59;4932165;28;101678;-74
2023/12/06 01:05:27;;;;;;;;;102.75;72.75;;;;;-143.90;100.00;76789.25;4921893;28;103610;-74
2023/12/06 01:07:53;;;;;;;;;85.75;65.00;;;;;-143.90;100.00;76780.97;4931316;28;102405;-74
2023/12/06 01:10:21;;;;;;;;;85.50;64.50;;;;;-143.90;100.00;76780.97;4933164;28;101766;-74
2023/12/06 01:12:48;;;;;;;;;78.50;60.25;;;;;-143.90;100.00;76789.25;4932947;28;101737;-74
2023/12/06 01:15:14;;;;;;;;;77.00;54.50;;;;;-143.90;100.00;76778.91;4933741;28;103477;-75
2023/12/06 01:17:41;;;;;;;;;92.75;65.75;;;;;-143.90;100.00;76793.38;4932459;28;101801;-74
2023/12/06 01:20:08;;;;;;;;;87.00;64.50;;;;;-143.90;100.00;76785.13;4930697;28;102022;-74
2023/12/06 01:22:35;;;;;;;;;91.00;66.50;;;;;-143.90;100.00;76789.25;4931230;28;102717;-74
2023/12/06 01:25:02;;;;;;;;;96.00;68.25;;;;;-143.90;100.00;76789.25;4929263;28;103468;-74
2023/12/06 01:27:29;;;;;;;;;91.75;65.50;;;;;-143.90;100.00;76793.38;4930482;28;102459;-75
2023/12/06 01:29:56;;;;;;;;;90.75;65.50;;;;;-143.90;100.00;76787.19;4929887;28;101870;-74
2023/12/06 01:32:37;;;;;;;;;89.50;67.00;;;;;-143.90;100.00;76785.13;4928772;28;102130;-74
2023/12/06 01:35:04;;;;;;;;;90.00;67.50;;;;;-143.90;100.00;76785.13;4928828;28;103353;-74
2023/12/06 01:37:30;;;;;;;;;80.00;59.25;;;;;-143.90;100.00;76783.03;4928366;28;102564;-75
2023/12/06 01:39:57;;;;;;;;;91.00;66.00;;;;;-143.90;100.00;76776.84;4928320;28;101792;-75
2023/12/06 01:42:23;;;;;;;;;82.50;60.50;;;;;-143.90;100.00;76772.72;4927674;28;102094;-72
2023/12/06 01:44:50;;;;;;;;;90.50;69.50;;;;;-143.90;100.00;76776.84;4929189;28;103437;-75
2023/12/06 01:47:20;;;;;;;;;81.75;57.25;;;;;-143.90;100.00;76772.72;4928943;28;101887;-75
2023/12/06 01:49:48;;;;;;;;;77.25;58.75;;;;;-143.90;100.00;76766.50;4926818;28;106211;-74
2023/12/06 01:52:15;;;;;;;;;76.25;55.75;;;;;-143.90;100.00;76760.28;4927734;28;101682;-76
2023/12/06 01:54:43;;;;;;;;;80.00;59.00;;;;;-143.90;100.00;76760.28;4925873;28;103582;-74
2023/12/06 01:57:11;;;;;;;;;84.00;62.25;;;;;-143.90;100.00;76768.56;4929961;28;101797;-75
2023/12/06 01:59:39;;;;;;;;;77.75;59.25;;;;;-143.90;100.00;76768.56;4928631;28;101939;-75
2023/12/06 02:02:07;;;;;;;;;69.75;54.00;;;;;-143.90;100.00;76768.56;4928608;28;101590;-74
2023/12/06 02:04:33;;;;;;;;;81.50;58.75;;;;;-143.90;100.00;76756.16;4928211;28;103456;-75
2023/12/06 02:07:00;;;;;;;;;66.00;48.75;;;;;-143.90;100.00;76743.75;4927930;28;101986;-75
2023/12/06 02:09:27;;;;;;;;;58.00;46.25;;;;;-143.90;100.00;76739.63;4928568;28;101978;-74
2023/12/06 02:11:55;;;;;;;;;53.00;35.33;;;;;-143.90;100.00;76733.41;4929855;28;101976;-74
2023/12/06 02:14:21;;;;;;;;;45.67;34.00;;;;;-143.90;100.00;76723.06;4929322;28;103693;-75
2023/12/06 02:16:50;;;;;;;;;35.67;26.00;;;;;-143.90;100.00;76718.94;4929613;28;101773;-75
2023/12/06 02:19:25;;;;;;;;;25.00;22.00;;;;;-143.90;100.00;76714.78;4928278;28;102023;-75
2023/12/06 02:21:52;;;;;;;;;27.33;20.33;;;;;-143.90;100.00;76718.94;4929882;28;101794;-74
2023/12/06 02:24:19;;;;;;;;;40.33;27.33;;;;;-143.90;100.00;76716.88;4943216;28;108624;-75
2023/12/06 02:26:45;;;;;;;;;33.33;28.67;;;;;-143.90;100.00;76712.72;4929387;28;102020;-75
2023/12/06 02:29:12;;;;;;;;;30.67;22.33;;;;;-143.90;100.00;76710.66;4925641;28;102355;-75
2023/12/06 02:31:39;;;;;;;;;26.33;21.00;;;;;-143.90;100.00;76718.94;4930024;28;101726;-75
2023/12/06 02:34:09;;;;;;;;;41.33;35.00;;;;;-143.90;100.00;76725.13;4926326;28;103523;-75
2023/12/06 02:36:39;;;;;;;;;44.00;33.00;;;;;-143.90;100.00;76723.06;4925756;28;102546;-75
2023/12/06 02:39:06;;;;;;;;;60.50;49.00;;;;;-143.90;100.00;76727.22;4925600;28;102392;-75
2023/12/06 02:41:34;;;;;;;;;59.00;47.25;;;;;-143.90;100.00;76727.22;4931377;28;101601;-74
2023/12/06 02:44:01;;;;;;;;;53.33;42.00;;;;;-143.90;100.00;76723.06;4923007;28;103538;-75
2023/12/06 02:46:28;;;;;;;;;49.75;37.75;;;;;-143.90;100.00;76721.00;4930348;28;102573;-75
2023/12/06 02:48:56;;;;;;;;;47.33;37.33;;;;;-143.90;100.00;76729.28;4935187;28;101899;-74
2023/12/06 02:51:23;;;;;;;;;60.50;49.25;;;;;-143.90;100.00;76737.53;4937549;28;101733;-74
2023/12/06 02:53:51;;;;;;;;;67.25;52.75;;;;;-143.90;100.00;76737.53;4937761;28;108336;-75
2023/12/06 02:56:18;;;;;;;;;74.50;56.50;;;;;-143.90;100.00;76737.53;4934880;28;102452;-75
2023/12/06 02:58:44;;;;;;;;;68.75;48.25;;;;;-143.90;100.00;76754.09;4935049;28;101915;-75
2023/12/06 03:01:11;;;;;;;;;71.25;55.00;;;;;-143.90;100.00;76760.28;4935649;28;102915;-75
2023/12/06 03:03:38;;;;;;;;;84.25;63.00;;;;;-143.90;100.00;76772.72;4934020;28;103402;-75
2023/12/06 03:06:05;;;;;;;;;77.50;53.00;;;;;-143.90;100.00;76774.78;4933810;28;101983;-75
2023/12/06 03:08:31;;;;;;;;;80.50;57.00;;;;;-143.90;100.00;76770.63;4934795;28;102246;-74
2023/12/06 03:10:58;;;;;;;;;87.75;64.00;;;;;-143.90;100.00;76774.78;4936513;28;101886;-74
2023/12/06 03:13:24;;;;;;;;;74.00;55.00;;;;;-143.90;100.00;76780.97;4934473;28;103753;-74
2023/12/06 03:15:51;;;;;;;;;75.75;58.00;;;;;-143.90;100.00;76793.38;4936217;28;103213;-74
2023/12/06 03:18:17;;;;;;;;;74.00;56.50;;;;;-143.90;100.00;76789.25;4933944;28;101700;-74
2023/12/06 03:20:44;;;;;;;;;74.75;50.25;;;;;-143.90;100.00;76789.25;4936268;28;102421;-75
2023/12/06 03:23:11;;;;;;;;;77.50;58.00;;;;;-143.90;100.00;76789.25;4934048;28;103614;-74
2023/12/06 03:25:37;;;;;;;;;85.50;67.00;;;;;-143.90;100.00;76799.59;4932947;28;102068;-75
2023/12/06 03:28:04;;;;;;;;;107.00;79.00;;;;;-143.90;100.00;76822.34;4934879;28;102767;-74
2023/12/06 03:30:31;;;;;;;;;117.50;78.75;;;;;-143.90;100.00;76828.53;4935535;28;102772;-75
2023/12/06 03:33:02;;;;;;;;;89.25;67.50;;;;;-143.90;100.00;76822.34;4933619;28;103287;-74
2023/12/06 03:35:29;;;;;;;;;92.50;69.25;;;;;-143.90;100.00;76814.06;4934652;28;102483;-74
2023/12/06 03:37:56;;;;;;;;;99.25;68.00;;;;;-143.90;100.00;76814.06;4933159;28;102814;-74
2023/12/06 03:40:23;;;;;;;;;97.75;69.00;;;;;-143.90;100.00;76820.28;4936481;28;104532;-73
2023/12/06 03:42:50;;;;;;;;;101.75;71.25;;;;;-143.90;100.00;76820.28;4934494;28;109292;-73
2023/12/06 03:45:17;;;;;;;;;87.25;64.75;;;;;-143.90;100.00;76830.63;4933884;28;102279;-74
2023/12/06 03:47:45;;;;;;;;;93.00;68.75;;;;;-143.90;100.00;76838.88;4934186;28;101616;-74
2023/12/06 03:50:12;;;;;;;;;79.25;64.75;;;;;-143.90;100.00;76830.63;4936311;28;101889;-74
2023/12/06 03:52:38;;;;;;;;;84.00;59.75;;;;;-143.90;100.00;76826.47;4934304;28;103371;-74
2023/12/06 03:55:05;;;;;;;;;80.75;58.50;;;;;-143.90;100.00;76826.47;4935005;28;101906;-74
2023/12/06 03:57:32;;;;;;;;;67.00;49.00;;;;;-143.90;100.00;76822.34;4930541;28;101642;-74
2023/12/06 03:59:58;;;;;;;;;55.00;48.00;;;;;-143.90;100.00;76814.06;4932497;28;101635;-74
2023/12/06 04:02:25;;;;;;;;;61.75;48.50;;;;;-143.90;100.00;76805.78;4926707;28;103640;-73
2023/12/06 04:04:52;;;;;;;;;96.50;67.00;;;;;-143.90;100.00;76814.06;4928565;28;101862;-74
2023/12/06 04:07:19;;;;;;;;;91.75;65.50;;;;;-143.90;100.00;76816.13;4930825;28;101571;-74
2023/12/06 04:09:45;;;;;;;;;99.50;75.00;;;;;-143.90;100.00;76805.78;4932268;28;103155;-74
2023/12/06 04:12:12;;;;;;;;;83.75;60.75;;;;;-143.90;100.00;76801.66;4929652;28;103745;-74
2023/12/06 04:14:38;;;;;;;;;87.00;62.75;;;;;-143.90;100.00;76809.94;4927438;28;101957;-74
2023/12/06 04:17:05;;;;;;;;;70.50;49.00;;;;;-143.90;100.00;76799.59;4930534;28;101678;-74
2023/12/06 04:19:34;;;;;;;;;67.25;51.75;;;;;-143.90;100.00;76805.78;4929961;28;101710;-75
2023/12/06 04:22:00;;;;;;;;;70.00;51.25;;;;;-143.90;100.00;76803.72;4929629;28;103356;-74
2023/12/06 04:24:27;;;;;;;;;83.25;59.75;;;;;-143.90;100.00;76805.78;4911928;28;101708;-74
2023/12/06 04:26:54;;;;;;;;;87.75;65.00;;;;;-143.90;100.00;76809.94;4931446;28;101708;-73
2023/12/06 04:29:20;;;;;;;;;78.50;59.00;;;;;-143.90;100.00;76803.72;4934651;28;101831;-74
2023/12/06 04:31:47;;;;;;;;;55.00;44.50;;;;;-143.90;100.00;76805.78;4931122;28;103600;-75
2023/12/06 04:34:14;;;;;;;;;79.75;55.00;;;;;-143.90;100.00;76807.88;4931456;28;101749;-74
2023/12/06 04:36:40;;;;;;;;;84.50;59.25;;;;;-143.90;100.00;76816.13;4928030;28;102032;-74
2023/12/06 04:39:07;;;;;;;;;67.25;50.25;;;;;-143.90;100.00;76809.94;4932220;28;102322;-75
2023/12/06 04:41:34;;;;;;;;;63.50;51.75;;;;;-143.90;100.00;76814.06;4930826;28;103474;-74
2023/12/06 04:44:00;;;;;;;;;66.00;49.00;;;;;-143.90;100.00;76814.06;4931378;28;101873;-74
2023/12/06 04:46:27;;;;;;;;;56.75;46.75;;;;;-143.90;100.00;76797.53;4929864;28;102057;-74
2023/12/06 04:48:54;;;;;;;;;55.00;40.50;;;;;-143.90;100.00;76791.31;4930836;28;102304;-73
2023/12/06 04:51:21;;;;;;;;;48.00;41.25;;;;;-143.90;100.00;76797.53;4931159;28;103888;-75
2023/12/06 04:53:50;;;;;;;;;51.25;46.25;;;;;-143.90;100.00;76793.38;4929519;28;101873;-73
2023/12/06 04:56:17;;;;;;;;;10.00;1.75;;;;;-143.90;100.00;76797.53;4930588;28;101694;-72
2023/12/06 04:58:43;;;;;;;;;69.25;51.25;;;;;-143.90;100.00;76787.19;4931374;28;102100;-74
2023/12/06 05:01:10;;;;;;;;;77.25;58.00;;;;;-143.90;100.00;76789.25;4928006;28;102098;-74
2023/12/06 05:03:37;;;;;;;;;81.25;61.50;;;;;-143.90;100.00;76807.88;4930784;28;102276;-74
2023/12/06 05:06:04;;;;;;;;;92.50;67.25;;;;;-143.90;100.00;76816.13;4928005;28;102197;-75
2023/12/06 05:08:31;;;;;;;;;89.25;65.50;;;;;-143.90;100.00;76824.41;4929859;28;101670;-73
2023/12/06 05:10:58;;;;;;;;;88.25;66.75;;;;;-143.90;100.00;76820.28;4926971;28;103281;-74
2023/12/06 05:13:24;;;;;;;;;91.25;65.25;;;;;-143.90;100.00;76818.22;4929464;28;101924;-73
2023/12/06 05:15:51;;;;;;;;;91.25;64.50;;;;;-143.90;100.00;76812.00;4931680;28;101988;-75
2023/12/06 05:18:17;;;;;;;;;70.75;56.25;;;;;-143.90;100.00;76805.78;4930280;28;101849;-73
2023/12/06 05:20:44;;;;;;;;;62.75;50.50;;;;;-143.90;100.00;76797.53;4931598;28;103428;-75
2023/12/06 05:23:11;;;;;;;;;56.00;43.75;;;;;-143.90;100.00;76789.25;4930906;28;102035;-75
2023/12/06 05:25:38;;;;;;;;;55.00;43.00;;;;;-143.90;100.00;76776.84;4929321;28;101946;-74
2023/12/06 05:28:04;;;;;;;;;39.00;31.00;;;;;-143.90;100.00;76778.91;4930613;28;102576;-74
2023/12/06 05:30:31;;;;;;;;;28.33;20.33;;;;;-143.90;100.00;76772.72;4925160;28;104679;-74
2023/12/06 05:32:58;;;;;;;;;34.67;26.00;;;;;-143.90;100.00;76762.38;4927367;28;101841;-75
2023/12/06 05:35:25;;;;;;;;;26.67;21.00;;;;;-143.90;100.00;76760.28;4930402;28;101805;-74
2023/12/06 05:37:51;;;;;;;;;59.50;45.75;;;;;-143.90;100.00;76768.56;4934105;28;101705;-73
2023/12/06 05:40:20;;;;;;;;;69.50;52.00;;;;;-143.90;100.00;76774.78;4929894;28;105819;-74
2023/12/06 05:42:48;;;;;;;;;67.50;52.00;;;;;-143.90;100.00;76772.72;4928349;28;101973;-75
2023/12/06 05:45:15;;;;;;;;;57.75;44.00;;;;;-143.90;100.00;76764.44;4927889;28;102048;-73
2023/12/06 05:47:41;;;;;;;;;89.00;66.50;;;;;-143.90;100.00;76780.97;4930490;28;102672;-73
2023/12/06 05:50:11;;;;;;;;;91.50;65.50;;;;;-143.90;100.00;76776.84;4929269;28;103345;-74
2023/12/06 05:52:37;;;;;;;;;79.50;59.50;;;;;-143.90;100.00;76764.44;4930601;28;102389;-75
2023/12/06 05:55:05;;;;;;;;;79.50;56.75;;;;;-143.90;100.00;76764.44;4929207;28;101687;-74
2023/12/06 05:57:32;;;;;;;;;81.00;62.50;;;;;-143.90;100.00;76764.44;4931842;28;101531;-73
2023/12/06 05:59:59;;;;;;;;;86.75;64.25;;;;;-143.90;100.00;76768.56;4929398;28;103737;-74
2023/12/06 06:02:25;;;;;;;;;99.50;70.00;;;;;-143.90;100.00;76772.72;4928877;28;101988;-74
2023/12/06 06:04:52;;;;;;;;;95.75;70.25;;;;;-143.90;100.00;76783.03;4932366;28;101678;-75
2023/12/06 06:07:19;;;;;;;;;115.25;88.00;;;;;-143.90;100.00;76793.38;4929825;28;102457;-76
2023/12/06 06:09:46;;;;;;;;;116.25;91.00;;;;;-143.90;100.00;76807.88;4929514;28;103392;-75
2023/12/06 06:12:24;;;;;;;;;128.50;99.25;;;;;-143.90;100.00;76807.88;4928986;28;102930;-74
2023/12/06 06:14:50;;;;;;;;;122.50;82.00;;;;;-143.90;100.00;76809.94;4932135;28;101784;-74
2023/12/06 06:17:17;;;;;;;;;111.25;80.50;;;;;-143.90;100.00;76793.38;4929951;28;101781;-74
2023/12/06 06:19:44;;;;;;;;;95.75;70.00;;;;;-143.90;100.00;76785.13;4928744;28;104043;-75
2023/12/06 06:22:10;;;;;;;;;92.00;65.25;;;;;-143.90;100.00;76768.56;4928620;28;101943;-75
2023/12/06 06:24:37;;;;;;;;;82.25;55.25;;;;;-143.90;100.00;76776.84;4924320;28;101922;-75
2023/12/06 06:27:04;;;;;;;;;85.00;64.50;;;;;-143.90;100.00;76772.72;4930515;28;102244;-75
2023/12/06 06:29:30;;;;;;;;;83.25;62.00;;;;;-143.90;100.00;76768.56;4930812;28;103842;-75
2023/12/06 06:31:57;;;;;;;;;77.50;59.25;;;;;-143.90;100.00;76760.28;4928377;28;101871;-75
2023/12/06 06:34:23;;;;;;;;;92.00;64.25;;;;;-143.90;100.00;76762.38;4930665;28;102389;-73
2023/12/06 06:36:50;;;;;;;;;105.00;75.50;;;;;-143.90;100.00;76770.63;4934427;28;102065;-75
2023/12/06 06:39:17;;;;;;;;;94.25;71.00;;;;;-143.90;100.00;76772.72;4928440;28;103418;-75
2023/12/06 06:41:44;;;;;;;;;105.50;76.00;;;;;-143.90;100.00;76776.84;4930987;28;102652;-75
2023/12/06 06:44:11;;;;;;;;;96.50;73.75;;;;;-143.90;100.00;76778.91;4929847;28;101959;-74
2023/12/06 06:46:37;;;;;;;;;108.75;71.00;;;;;-143.90;100.00;76776.84;4928340;28;102466;-74
2023/12/06 06:49:04;;;;;;;;;94.50;69.75;;;;;-143.90;100.00;76774.78;4930629;28;103423;-75
2023/12/06 06:51:37;;;;;;;;;93.25;68.50;;;;;-143.90;100.00;76764.44;4926882;28;102042;-75
2023/12/06 06:54:09;;;;;;;;;82.00;63.50;;;;;-143.90;100.00;76760.28;4929595;28;101856;-75
2023/12/06 06:56:35;;;;;;;;;88.75;59.50;;;;;-143.90;100.00;76752.03;4932029;28;101872;-76
2023/12/06 06:59:02;;;;;;;;;81.75;59.75;;;;;-143.90;100.00;76743.75;4930278;28;103582;-75
2023/12/06 07:01:29;;;;;;;;;80.75;57.75;;;;;-143.90;100.00;76737.53;4930054;28;101782;-75
2023/12/06 07:03:56;;;;;;;;;74.00;56.50;;;;;-143.90;100.00;76735.47;4927297;28;101822;-74
2023/12/06 07:06:23;;;;;;;;;82.00;59.50;;;;;-143.90;100.00;76729.28;4933159;28;101578;-74
2023/12/06 07:08:50;;;;;;;;;81.50;59.25;;;;;-143.90;100.00;76735.47;4942195;28;108115;-75
2023/12/06 07:11:16;;;;;;;;;76.25;58.50;;;;;-143.90;100.00;76727.22;4927885;28;102495;-75
2023/12/06 07:13:43;;;;;;;;;83.25;62.75;;;;;-143.90;100.00;76731.34;4930105;28;101852;-75
2023/12/06 07:16:12;;;;;;;;;77.50;59.00;;;;;-143.90;100.00;76729.28;4927767;28;102189;-74
2023/12/06 07:18:39;;;;;;;;;75.25;55.00;;;;;-143.90;100.00;76729.28;4927206;28;103333;-74
2023/12/06 07:21:07;;;;;;;;;78.00;56.75;;;;;-143.90;100.00;76714.78;4928995;28;101952;-75
2023/12/06 07:23:34;;;;;;;;;69.25;52.25;;;;;-143.90;100.00;76706.53;4929673;28;101929;-75
2023/12/06 07:26:01;;;;;;;;;68.00;53.25;;;;;-143.90;100.00;76692.03;4928709;28;101511;-75
2023/12/06 07:28:28;;;;;;;;;76.25;57.25;;;;;-143.90;100.00;76685.84;4929051;28;103517;-76
2023/12/06 07:30:59;;;;;;;;;64.50;47.50;;;;;-143.90;100.00;76669.28;4927959;28;101833;-76
2023/12/06 07:33:26;;;;;;;;;51.00;41.00;;;;;-143.90;100.00;76652.75;4931618;28;101806;-77
2023/12/06 07:35:56;;;;;;;;;62.00;48.00;;;;;-143.90;100.00;76652.75;4935904;28;101973;-77
2023/12/06 07:38:25;;;;;;;;;59.00;46.00;;;;;-143.90;100.00;76640.34;4932852;28;108075;-75
2023/12/06 07:40:52;;;;;;;;;48.67;42.67;;;;;-143.90;100.00;76625.88;4932674;28;102070;-77
2023/12/06 07:43:19;;;;;;;;;39.00;34.00;;;;;-143.90;100.00;76615.53;4931469;28;102422;-77
2023/12/06 07:45:45;;;;;;;;;40.00;27.67;;;;;-143.90;100.00;76607.25;4934915;28;101596;-76
2023/12/06 07:48:12;;;;;;;;;44.00;33.67;;;;;-143.90;100.00;76594.84;4929531;28;103655;-75
2023/12/06 07:50:39;;;;;;;;;38.00;32.00;;;;;-143.90;100.00;76584.50;4930163;28;101928;-76
2023/12/06 07:53:05;;;;;;;;;32.67;28.33;;;;;-143.90;100.00;76580.38;4932819;28;101667;-76
2023/12/06 07:55:32;;;;;;;;;35.67;29.00;;;;;-143.90;100.00;76561.75;4933486;28;101710;-76
2023/12/06 07:57:59;;;;;;;;;37.33;27.67;;;;;-143.90;100.00;76549.34;4931079;28;103387;-76
2023/12/06 08:00:26;;;;;;;;;41.33;30.67;;;;;-143.90;100.00;76543.13;4931287;28;102034;-76
2023/12/06 08:02:52;;;;;;;;;26.67;20.67;;;;;-143.90;100.00;76541.06;4933250;28;102353;-75
2023/12/06 08:05:19;;;;;;;;;36.00;26.67;;;;;-143.90;100.00;76526.59;4933781;28;102047;-76
2023/12/06 08:07:47;;;;;;;;;35.67;29.00;;;;;-143.90;100.00;76507.97;4931412;28;103622;-76
2023/12/06 08:10:22;;;;;;;;;31.00;28.33;;;;;-143.90;100.00;76512.13;4933795;28;102203;-78
2023/12/06 08:12:50;;;;;;;;;35.00;31.00;;;;;-143.90;100.00;76495.56;4931447;28;101535;-77
2023/12/06 08:15:17;;;;;;;;;59.33;46.33;;;;;-143.90;100.00;76510.06;4932499;28;101632;-77
2023/12/06 08:17:43;;;;;;;;;51.67;44.00;;;;;-143.90;100.00;76507.97;4931488;28;103938;-77
2023/12/06 08:20:10;;;;;;;;;50.67;42.00;;;;;-143.90;100.00;76483.16;4930843;28;102180;-77
2023/12/06 08:22:37;;;;;;;;;62.33;45.33;;;;;-143.90;100.00;76489.38;4929795;28;101813;-77
2023/12/06 08:25:06;;;;;;;;;49.67;44.00;;;;;-143.90;100.00;76464.56;4931147;28;101555;-76
2023/12/06 08:27:34;;;;;;;;;51.00;45.00;;;;;-143.90;100.00;76472.81;4927004;28;102761;-77
2023/12/06 08:30:02;;;;;;;;;65.50;50.50;;;;;-143.90;100.00;76474.91;4932801;28;101820;-76
2023/12/06 08:32:30;;;;;;;;;89.75;66.75;;;;;-143.90;100.00;76495.56;4930135;28;101724;-77
2023/12/06 08:34:57;;;;;;;;;85.75;59.00;;;;;-143.90;100.00;76481.09;4933217;28;101890;-77
2023/12/06 08:37:26;;;;;;;;;88.75;62.00;;;;;-143.90;100.00;76483.16;4936728;28;103515;-74
2023/12/06 08:39:53;;;;;;;;;87.75;63.25;;;;;-143.90;100.00;76489.38;4933899;28;101864;-77
2023/12/06 08:42:20;;;;;;;;;76.75;59.25;;;;;-143.90;100.00;76479.03;4932471;28;102754;-78
2023/12/06 08:44:47;;;;;;;;;87.25;65.50;;;;;-143.90;100.00;76489.38;4931650;28;102247;-76
2023/12/06 08:47:17;;;;;;;;;98.00;71.25;;;;;-143.90;100.00;76516.25;4930529;28;103488;-79
2023/12/06 08:49:44;;;;;;;;;100.50;74.50;;;;;-143.90;100.00;76534.88;4931777;28;102044;-78
2023/12/06 08:52:11;;;;;;;;;107.25;74.75;;;;;-143.90;100.00;76528.66;4931825;28;101957;-77
2023/12/06 08:54:38;;;;;;;;;99.50;70.75;;;;;-143.90;100.00;76524.53;4933191;28;101632;-76
2023/12/06 08:57:06;;;;;;;;;91.50;68.75;;;;;-143.90;100.00;76485.22;4931630;28;103324;-77
2023/12/06 08:59:33;;;;;;;;;93.75;64.25;;;;;-143.90;100.00;76476.97;4947192;28;102077;-77
2023/12/06 09:01:59;;;;;;;;;86.25;65.50;;;;;-143.90;100.00;76472.81;4932040;28;101583;-76
2023/12/06 09:04:26;;;;;;;;;84.50;62.75;;;;;-143.90;100.00;76460.41;4931995;28;101937;-77
2023/12/06 09:06:53;;;;;;;;;83.25;57.25;;;;;-143.90;100.00;76439.75;4931837;28;103368;-77
2023/12/06 09:09:19;;;;;;;;;76.00;54.00;;;;;-143.90;100.00;76425.25;4930455;28;101956;-78
2023/12/06 09:11:46;;;;;;;;;77.00;59.00;;;;;-143.90;100.00;76392.16;4930751;28;101532;-78
2023/12/06 09:14:17;;;;;;;;;81.25;56.75;;;;;-143.90;100.00;76363.22;4930018;28;102195;-78
2023/12/06 09:16:43;;;;;;;;;59.33;48.67;;;;;-143.90;100.00;76363.22;4929798;28;104994;-78
2023/12/06 09:19:10;;;;;;;;;55.00;44.00;;;;;-143.90;100.00;76350.81;4943567;28;101924;-79
2023/12/06 09:21:46;;;;;;;;;58.33;44.33;;;;;-143.90;100.00;76338.41;4930837;28;101624;-78
2023/12/06 09:24:13;;;;;;;;;46.00;33.00;;;;;-143.90;100.00;76326.00;4932589;28;101738;-79
2023/12/06 09:26:41;;;;;;;;;54.00;41.67;;;;;-143.90;100.00;76305.31;4928570;28;103542;-79
2023/12/06 09:29:09;;;;;;;;;68.00;51.00;;;;;-143.90;100.00;76299.09;4931038;28;101883;-78
2023/12/06 09:31:37;;;;;;;;;67.00;53.33;;;;;-143.90;100.00;76272.22;4932367;28;101570;-78
2023/12/06 09:34:04;;;;;;;;;69.25;53.00;;;;;-143.90;100.00;76249.47;4948197;28;101804;-77
2023/12/06 09:36:31;;;;;;;;;96.00;70.75;;;;;-143.90;100.00;76247.41;4929838;28;103502;-80
2023/12/06 09:38:59;;;;;;;;;84.25;61.75;;;;;-143.90;100.00;76241.22;4931730;28;102239;-75
2023/12/06 09:41:30;;;;;;;;;81.00;62.00;;;;;-143.90;100.00;76220.53;4932729;28;101527;-79
2023/12/06 09:44:01;;;;;;;;;94.75;67.00;;;;;-143.90;100.00;76210.19;4932327;28;101642;-78
2023/12/06 09:46:28;;;;;;;;;82.00;66.25;;;;;-143.90;100.00;76222.59;4930138;28;108053;-78
2023/12/06 09:48:54;;;;;;;;;105.50;79.50;;;;;-143.90;100.00;76280.50;4930067;28;101936;-78
2023/12/06 09:51:25;;;;;;;;;105.50;80.75;;;;;-143.90;100.00;76319.78;4930055;28;101538;-77
2023/12/06 09:53:52;;;;;;;;;105.50;80.25;;;;;-143.90;100.00;76317.72;4931637;28;101619;-79
2023/12/06 09:56:18;;;;;;;;;99.00;71.75;;;;;-143.90;100.00;76334.25;4929357;28;103336;-78
2023/12/06 09:58:45;;;;;;;;;91.50;66.50;;;;;-143.90;100.00;76315.66;4931207;28;101931;-78
2023/12/06 10:01:12;;;;;;;;;78.50;62.50;;;;;-143.90;100.00;76354.94;4927243;28;101501;-78
2023/12/06 10:03:40;;;;;;;;;87.50;63.25;;;;;-143.90;100.00;76342.53;4930676;28;101983;-78
2023/12/06 10:06:08;;;;;;;;;77.33;57.00;;;;;-143.90;100.00;76326.00;4930847;28;103305;-78
2023/12/06 10:08:35;;;;;;;;;76.33;58.33;;;;;-143.90;100.00;76321.84;4931214;28;102397;-78
2023/12/06 10:11:09;;;;;;;;;79.33;56.33;;;;;-143.90;100.00;76307.38;4930069;28;101511;-78
2023/12/06 10:13:41;;;;;;;;;84.25;59.25;;;;;-143.90;100.00;76330.13;4945214;28;101795;-78
2023/12/06 10:16:15;;;;;;;;;82.00;64.00;;;;;-143.90;100.00;76321.84;4930122;28;103413;-78
2023/12/06 10:18:46;;;;;;;;;87.00;64.00;;;;;-143.90;100.00;76317.72;4930017;28;101897;-78
2023/12/06 10:21:14;;;;;;;;;81.00;58.50;;;;;-143.90;100.00;76305.31;4930366;28;101897;-78
2023/12/06 10:23:44;;;;;;;;;86.75;65.50;;;;;-143.90;100.00;76313.59;4929890;28;101797;-78
2023/12/06 10:26:16;;;;;;;;;90.25;68.00;;;;;-143.90;100.00;76326.00;4925619;28;103638;-78
2023/12/06 10:28:45;;;;;;;;;89.25;64.75;;;;;-143.90;100.00;76284.63;4930306;28;101924;-78
2023/12/06 10:31:12;;;;;;;;;91.00;65.25;;;;;-143.90;100.00;76307.38;4927460;28;101899;-78
2023/12/06 10:33:39;;;;;;;;;89.00;64.75;;;;;-143.90;100.00;76297.03;4929284;28;101578;-78
2023/12/06 10:36:08;;;;;;;;;99.25;69.75;;;;;-143.90;100.00;76317.72;4930410;28;103341;-78
2023/12/06 10:38:37;;;;;;;;;85.00;62.50;;;;;-143.90;100.00;76286.69;4923695;28;101831;-78
2023/12/06 10:41:06;;;;;;;;;82.00;59.50;;;;;-143.90;100.00;76268.09;4928665;28;101539;-78
2023/12/06 10:43:36;;;;;;;;;77.00;59.00;;;;;-143.90;100.00;76241.22;4931380;28;101665;-78
2023/12/06 10:46:04;;;;;;;;;76.33;54.67;;;;;-143.90;100.00;76218.47;4928779;28;103605;-78
2023/12/06 10:48:33;;;;;;;;;70.00;51.00;;;;;-143.90;100.00;76206.06;4946817;28;101939;-77